Forside
METAR-TAF:

METAR-TAF

Lufthavne :

Franceville, Gabon

Breddekreds: 01-39S, længdekreds: 013-26E, højde: 441 m

Aktuelle vejr

Denne rapport blev lavet for 43 minutter siden, kl. 06:00 UTC
Vind 5 kt fra sydsydøst
Temperatur 22°C
Fugtighed 100%
Tryk 1012 hPa
Sigt 10 km eller mere
Nogle få skyer i en højde af 1000 ft
Nogle få skyer i en højde af 1600 ft, Cumulonimbus.

METAR: FOON 250600Z 15005KT 9999 FEW010 FEW016CB 22/22 Q1012

Tid: 07:43 (06:43 UTC)


TAF: fraværende

Vejrobservationer og prognoser fra mere end 4000 lufthavne (METAR og TAF).

De gule og røde prikker repræsenterer de meteorologiske stationer.

Flyt musen over at se navnet på stationen.

Så klik over at se vejr observationer og prognoser.

At skifte det kort: Klik på de grønne knapper med et sort kors for at zoome ind; på den grønne knap med en bindestreg for at zoome ud; eller på de grønne pile for tilstødende kort.


METAR-TAF: